Barstow, California
Current Conditions -  °F | °C
As of 9:50 AM on Thursday 27 Nov 2014 (Local Time) from KDAG Reporting Station
Clear Clear  
Wind Chill: 58°   Ceiling: Unl
Heat Index: 58°   Visibility: 10mi
Dew Point: 10°   Wind: 5mph
Humidity: 15%   Direction: 280°W
Pressure: 30.28"   Gusts: NA
Location:  34.89°N, 117.02°W
Report Text: KDAG 271750Z AUTO 28004KT 10SM CLR 14/M12 A3028 RMK AO2 SLP248 T01441122 10144 20022 58001
Loading
Personal Weather Stations






























Interactive Weather Map New forecast layout! Learn more

10-Day Weather Forecast

Advertisements
Track Severe Weather on mobile